createdAt,value
2022-10-10T00:01:48.616Z,100425.34
2022-10-10T00:04:17.165Z,100430.28
2022-10-10T00:06:45.786Z,100432.63
2022-10-10T00:09:17.326Z,100431.16
2022-10-10T00:11:45.857Z,100431.34
2022-10-10T00:14:14.384Z,100437.66
2022-10-10T00:16:47.045Z,100441.59
2022-10-10T00:19:18.304Z,100443.81
2022-10-10T00:21:46.894Z,100443.81
2022-10-10T00:24:17.336Z,100446.56
2022-10-10T00:26:45.825Z,100452.78
2022-10-10T00:29:14.405Z,100461.53
2022-10-10T00:31:42.995Z,100458.75
2022-10-10T00:34:12.954Z,100462.41
2022-10-10T00:36:41.524Z,100470.50
2022-10-10T00:39:10.005Z,100472.28
2022-10-10T00:41:41.224Z,100471.53
2022-10-10T00:44:11.305Z,100472.47
2022-10-10T00:46:42.564Z,100487.22
2022-10-10T00:49:16.504Z,100485.72
2022-10-10T00:51:48.454Z,100489.09
2022-10-10T00:54:19.565Z,100493.47
2022-10-10T00:56:54.414Z,100499.91
2022-10-10T00:59:28.444Z,100501.94
2022-10-10T01:01:57.185Z,100506.97
2022-10-10T01:04:34.394Z,100513.22
2022-10-10T01:07:07.665Z,100517.88
2022-10-10T01:09:38.595Z,100519.38
2022-10-10T01:12:23.935Z,100525.13
2022-10-10T01:15:02.828Z,100531.13
2022-10-10T01:17:43.515Z,100533.75
2022-10-10T01:20:39.255Z,100532.22
2022-10-10T01:23:37.825Z,100549.00
2022-10-10T01:26:28.643Z,100549.84
2022-10-10T01:29:04.235Z,100550.50
2022-10-10T01:31:36.446Z,100545.44
2022-10-10T01:34:16.534Z,100549.75
2022-10-10T01:36:56.965Z,100547.69
2022-10-10T01:39:31.545Z,100556.25
2022-10-10T01:42:06.504Z,100559.78
2022-10-10T01:44:36.815Z,100556.44
2022-10-10T01:47:05.514Z,100558.03
2022-10-10T01:49:35.444Z,100559.06
2022-10-10T01:52:15.534Z,100566.28
2022-10-10T01:54:54.274Z,100568.75
2022-10-10T01:57:28.044Z,100574.28
2022-10-10T02:00:10.768Z,100576.28
2022-10-10T02:02:50.823Z,100584.72
2022-10-10T02:05:28.874Z,100584.88
2022-10-10T02:08:05.924Z,100579.66
2022-10-10T02:10:39.224Z,100587.00
2022-10-10T02:13:09.014Z,100591.47
2022-10-10T02:15:46.608Z,100601.22
2022-10-10T02:18:20.223Z,100600.28
2022-10-10T02:20:51.196Z,100605.00
2022-10-10T02:23:24.674Z,100601.06
2022-10-10T02:25:55.963Z,100606.88
2022-10-10T02:28:27.684Z,100608.28
2022-10-10T02:31:02.694Z,100611.34
2022-10-10T02:33:41.015Z,100615.28
2022-10-10T02:36:10.284Z,100621.28
2022-10-10T02:38:39.834Z,100616.03
2022-10-10T02:41:13.027Z,100624.88
2022-10-10T02:43:43.665Z,100631.44
2022-10-10T02:46:15.762Z,100634.16
2022-10-10T02:48:47.645Z,100634.72
2022-10-10T02:51:19.564Z,100635.25
2022-10-10T02:53:48.244Z,100642.97
2022-10-10T02:56:16.859Z,100644.16
2022-10-10T02:58:45.503Z,100645.16
2022-10-10T03:01:17.126Z,100644.97
2022-10-10T03:03:45.854Z,100655.03
2022-10-10T03:06:14.434Z,100647.09
2022-10-10T03:08:43.074Z,100649.97
2022-10-10T03:11:12.913Z,100650.47
2022-10-10T03:13:41.804Z,100658.31
2022-10-10T03:16:12.487Z,100652.44
2022-10-10T03:18:42.773Z,100662.25
2022-10-10T03:21:13.753Z,100662.00
2022-10-10T03:23:43.574Z,100667.81
2022-10-10T03:26:12.234Z,100665.78
2022-10-10T03:28:40.870Z,100668.06
2022-10-10T03:31:12.813Z,100673.13
2022-10-10T03:33:42.943Z,100670.72
2022-10-10T03:36:11.613Z,100671.50
2022-10-10T03:38:41.763Z,100674.19
2022-10-10T03:41:10.394Z,100678.97
2022-10-10T03:43:39.163Z,100676.72
2022-10-10T03:46:11.374Z,100687.63
2022-10-10T03:48:43.793Z,100682.75
2022-10-10T03:51:12.486Z,100684.34
2022-10-10T03:53:41.353Z,100688.88
2022-10-10T03:56:12.394Z,100691.25
2022-10-10T03:58:41.063Z,100692.25
2022-10-10T04:01:10.068Z,100697.75
2022-10-10T04:03:39.051Z,100714.81
2022-10-10T04:06:09.944Z,100714.56
2022-10-10T04:08:38.834Z,100718.59
2022-10-10T04:11:07.684Z,100728.69
2022-10-10T04:13:39.015Z,100728.25
2022-10-10T04:16:08.344Z,100735.84
2022-10-10T04:18:36.974Z,100741.06
2022-10-10T04:21:06.804Z,100742.22
2022-10-10T04:23:38.645Z,100747.75
2022-10-10T04:26:07.866Z,100742.13
2022-10-10T04:28:36.661Z,100750.19
2022-10-10T04:31:05.874Z,100755.50
2022-10-10T04:33:37.626Z,100762.69
2022-10-10T04:36:09.036Z,100766.09
2022-10-10T04:38:40.923Z,100762.56
2022-10-10T04:41:09.626Z,100779.34
2022-10-10T04:43:40.147Z,100786.34
2022-10-10T04:46:10.793Z,100788.78
2022-10-10T04:48:39.614Z,100785.78
2022-10-10T04:51:12.125Z,100792.19
2022-10-10T04:53:44.012Z,100791.53
2022-10-10T04:56:15.675Z,100792.31
2022-10-10T04:58:44.274Z,100799.75
2022-10-10T05:01:17.320Z,100803.13
2022-10-10T05:03:47.944Z,100802.38
2022-10-10T05:06:16.675Z,100800.94
2022-10-10T05:08:46.815Z,100808.09
2022-10-10T05:11:15.424Z,100802.72
2022-10-10T05:13:45.294Z,100810.53
2022-10-10T05:16:13.948Z,100819.19
2022-10-10T05:18:42.614Z,100822.88
2022-10-10T05:21:12.294Z,100830.00
2022-10-10T05:23:41.965Z,100828.81
2022-10-10T05:26:12.814Z,100823.88
2022-10-10T05:28:41.462Z,100838.44
2022-10-10T05:31:10.094Z,100829.88
2022-10-10T05:33:38.814Z,100829.44
2022-10-10T05:36:09.579Z,100840.44
2022-10-10T05:38:39.605Z,100849.94
2022-10-10T05:41:09.306Z,100865.94
2022-10-10T05:43:39.565Z,100869.16
2022-10-10T05:46:08.325Z,100865.44
2022-10-10T05:48:37.334Z,100880.16
2022-10-10T05:51:06.315Z,100890.78
2022-10-10T05:53:34.919Z,100903.13
2022-10-10T05:56:03.788Z,100904.94
2022-10-10T05:58:32.464Z,100905.63
2022-10-10T06:01:07.707Z,100901.44
2022-10-10T06:03:36.995Z,100899.44
2022-10-10T06:06:07.183Z,100904.03
2022-10-10T06:08:36.174Z,100910.72
2022-10-10T06:11:09.355Z,100919.03
2022-10-10T06:13:38.914Z,100924.72
2022-10-10T06:16:11.175Z,100922.91
2022-10-10T06:18:39.884Z,100927.97
2022-10-10T06:21:09.837Z,100925.63
2022-10-10T06:23:38.435Z,100930.16
2022-10-10T06:26:08.956Z,100932.53
2022-10-10T06:28:37.926Z,100938.75
2022-10-10T06:31:10.077Z,100950.94
2022-10-10T06:33:39.504Z,100952.50
2022-10-10T06:36:09.944Z,100960.50
2022-10-10T06:38:39.346Z,100964.25
2022-10-10T06:41:09.185Z,100968.88
2022-10-10T06:43:38.535Z,100963.50
2022-10-10T06:46:09.914Z,100968.03
2022-10-10T06:48:38.686Z,100987.25
2022-10-10T06:51:09.337Z,100982.13
2022-10-10T06:53:38.024Z,100989.16
2022-10-10T06:56:06.710Z,100996.47
2022-10-10T06:58:35.949Z,101005.09
2022-10-10T07:01:06.251Z,101001.72
2022-10-10T07:03:36.670Z,101000.81
2022-10-10T07:06:05.559Z,101012.69
2022-10-10T07:08:34.961Z,101005.00
2022-10-10T07:11:03.670Z,101020.56
2022-10-10T07:13:32.700Z,101030.66
2022-10-10T07:16:04.032Z,101036.78
2022-10-10T07:18:39.850Z,101045.47
2022-10-10T07:21:09.789Z,101052.34
2022-10-10T07:23:41.110Z,101052.75
2022-10-10T07:26:13.071Z,101061.03
2022-10-10T07:28:42.453Z,101059.84
2022-10-10T07:31:12.833Z,101064.22
2022-10-10T07:33:49.686Z,101074.97
2022-10-10T07:36:20.991Z,101080.56
2022-10-10T07:38:57.309Z,101085.28
2022-10-10T07:41:25.859Z,101083.38
2022-10-10T07:43:57.749Z,101090.22
2022-10-10T07:46:26.519Z,101094.84
2022-10-10T07:48:54.929Z,101098.75
2022-10-10T07:51:24.859Z,101108.53
2022-10-10T07:53:53.991Z,101109.34
2022-10-10T07:56:22.491Z,101116.41
2022-10-10T07:58:50.951Z,101116.16
2022-10-10T08:01:19.581Z,101123.91
2022-10-10T08:03:48.780Z,101128.53
2022-10-10T08:06:19.019Z,101141.09
2022-10-10T08:08:52.238Z,101146.25
2022-10-10T08:11:22.154Z,101150.44
2022-10-10T08:13:51.509Z,101150.53
2022-10-10T08:16:20.664Z,101145.44
2022-10-10T08:18:49.228Z,101146.56
2022-10-10T08:21:18.309Z,101160.47
2022-10-10T08:23:48.609Z,101160.38
2022-10-10T08:26:18.641Z,101166.31
2022-10-10T08:28:48.913Z,101171.25
2022-10-10T08:31:20.069Z,101175.63
2022-10-10T08:33:49.589Z,101182.50
2022-10-10T08:36:20.752Z,101192.00
2022-10-10T08:38:52.799Z,101194.47
2022-10-10T08:41:29.659Z,101198.06
2022-10-10T08:44:01.243Z,101203.28
2022-10-10T08:46:36.981Z,101207.47
2022-10-10T08:49:16.280Z,101211.63
2022-10-10T08:51:49.881Z,101207.22
2022-10-10T08:54:21.269Z,101211.56
2022-10-10T08:56:51.289Z,101214.38
2022-10-10T08:59:25.970Z,101218.53
2022-10-10T09:02:17.590Z,101222.78
2022-10-10T09:04:47.489Z,101225.59
2022-10-10T09:07:26.980Z,101231.72
2022-10-10T09:10:09.420Z,101233.75
2022-10-10T09:12:50.201Z,101246.53
2022-10-10T09:15:25.613Z,101242.88
2022-10-10T09:18:03.824Z,101246.34
2022-10-10T09:20:47.152Z,101256.50
2022-10-10T09:23:23.592Z,101258.94
2022-10-10T09:26:00.162Z,101258.19
2022-10-10T09:28:39.301Z,101265.19
2022-10-10T09:31:15.879Z,101263.41
2022-10-10T09:33:50.920Z,101270.16
2022-10-10T09:36:23.170Z,101272.75
2022-10-10T09:38:55.542Z,101276.09
2022-10-10T09:41:35.279Z,101284.69
2022-10-10T09:44:08.570Z,101292.63
2022-10-10T09:46:38.721Z,101289.41
2022-10-10T09:49:07.794Z,101287.84
2022-10-10T09:51:36.439Z,101292.72
2022-10-10T09:54:08.209Z,101289.53
2022-10-10T09:56:43.969Z,101298.41
2022-10-10T09:59:26.860Z,101302.38
2022-10-10T10:02:03.989Z,101301.97
2022-10-10T10:04:34.347Z,101306.22
2022-10-10T10:07:09.189Z,101310.03
2022-10-10T10:09:37.699Z,101303.63
2022-10-10T10:12:08.419Z,101312.03
2022-10-10T10:14:40.158Z,101317.38
2022-10-10T10:17:10.981Z,101318.50
2022-10-10T10:19:41.599Z,101326.31
2022-10-10T10:22:26.898Z,101329.53
2022-10-10T10:24:56.329Z,101328.75
2022-10-10T10:27:28.528Z,101332.38
2022-10-10T10:29:59.129Z,101332.66
2022-10-10T10:32:46.651Z,101334.75
2022-10-10T10:35:29.075Z,101331.81
2022-10-10T10:38:25.590Z,101328.28
2022-10-10T10:41:02.658Z,101332.38
2022-10-10T10:44:02.781Z,101335.50
2022-10-10T10:46:46.689Z,101341.53
2022-10-10T10:49:19.709Z,101346.72
2022-10-10T10:52:11.509Z,101346.09
2022-10-10T10:54:54.829Z,101344.03
2022-10-10T10:57:40.625Z,101350.66
2022-10-10T11:01:22.619Z,101353.78
2022-10-10T11:05:16.533Z,101352.19
2022-10-10T11:06:32.112Z,101363.13
2022-10-10T11:09:16.924Z,101362.84
2022-10-10T11:12:07.239Z,101366.03
2022-10-10T11:14:50.669Z,101371.78
2022-10-10T11:17:25.289Z,101377.00
2022-10-10T11:20:00.029Z,101376.13
2022-10-10T11:22:32.519Z,101371.31
2022-10-10T11:25:07.399Z,101377.47
2022-10-10T11:27:41.283Z,101387.59
2022-10-10T11:30:17.198Z,101394.16
2022-10-10T11:32:55.679Z,101404.13
2022-10-10T11:35:31.808Z,101402.50
2022-10-10T11:38:08.099Z,101395.22
2022-10-10T11:40:49.510Z,101388.88
2022-10-10T11:43:27.099Z,101386.81
2022-10-10T11:46:03.324Z,101394.53
2022-10-10T11:48:41.629Z,101408.06
2022-10-10T11:51:23.795Z,101410.91
2022-10-10T11:53:59.061Z,101407.50
2022-10-10T11:56:33.579Z,101412.59
2022-10-10T11:59:09.829Z,101413.31
2022-10-10T12:01:43.126Z,101407.88
2022-10-10T12:04:13.710Z,101417.56
2022-10-10T12:06:46.049Z,101419.31
2022-10-10T12:09:19.799Z,101418.97
2022-10-10T12:11:55.058Z,101424.66
2022-10-10T12:14:26.839Z,101420.81
2022-10-10T12:16:57.260Z,101415.31
2022-10-10T12:19:30.219Z,101429.31
2022-10-10T12:22:03.539Z,101436.66
2022-10-10T12:24:33.430Z,101437.88
2022-10-10T12:27:30.358Z,101437.34
2022-10-10T12:30:25.026Z,101439.56
2022-10-10T12:32:55.639Z,101432.78
2022-10-10T12:35:35.730Z,101433.38
2022-10-10T12:38:25.232Z,101442.81
2022-10-10T12:41:10.289Z,101446.44
2022-10-10T12:43:53.099Z,101455.50
2022-10-10T12:46:30.660Z,101453.63
2022-10-10T12:49:05.399Z,101452.81
2022-10-10T12:51:37.629Z,101447.75
2022-10-10T12:54:08.553Z,101450.81
2022-10-10T12:56:42.650Z,101450.81
2022-10-10T12:59:28.769Z,101463.94
2022-10-10T13:02:00.230Z,101467.47
2022-10-10T13:04:29.710Z,101471.66
2022-10-10T13:07:03.409Z,101464.66
2022-10-10T13:09:36.135Z,101455.72
2022-10-10T13:12:07.112Z,101451.50
2022-10-10T13:14:41.549Z,101454.41
2022-10-10T13:17:24.269Z,101469.31
2022-10-10T13:19:53.079Z,101480.34
2022-10-10T13:22:24.139Z,101475.50
2022-10-10T13:24:53.770Z,101476.94
2022-10-10T13:27:24.470Z,101471.81
2022-10-10T13:29:53.968Z,101466.00
2022-10-10T13:32:25.570Z,101474.94
2022-10-10T13:34:56.640Z,101483.38
2022-10-10T13:37:27.280Z,101484.72
2022-10-10T13:39:56.308Z,101487.03
2022-10-10T13:42:32.108Z,101487.97
2022-10-10T13:45:03.254Z,101489.34
2022-10-10T13:47:52.813Z,101491.72
2022-10-10T13:50:24.941Z,101488.47
2022-10-10T13:53:24.769Z,101492.88
2022-10-10T13:56:01.828Z,101493.59
2022-10-10T13:58:33.569Z,101486.97
2022-10-10T14:01:04.621Z,101496.31
2022-10-10T14:03:35.502Z,101507.78
2022-10-10T14:06:04.100Z,101503.00
2022-10-10T14:08:35.369Z,101500.69
2022-10-10T14:11:08.274Z,101494.94
2022-10-10T14:13:40.025Z,101496.00
2022-10-10T14:16:13.539Z,101499.16
2022-10-10T14:18:42.063Z,101499.31
2022-10-10T14:21:10.569Z,101514.09
2022-10-10T14:23:41.031Z,101510.06
2022-10-10T14:26:15.892Z,101510.94
2022-10-10T14:28:44.993Z,101522.44
2022-10-10T14:31:14.088Z,101519.16
2022-10-10T14:33:42.709Z,101517.41
2022-10-10T14:36:13.670Z,101524.44
2022-10-10T14:38:43.575Z,101521.75
2022-10-10T14:41:14.070Z,101529.00
2022-10-10T14:43:45.942Z,101527.28
2022-10-10T14:46:19.995Z,101529.91
2022-10-10T14:48:48.819Z,101537.53
2022-10-10T14:51:33.022Z,101540.13
2022-10-10T14:54:10.774Z,101547.56
2022-10-10T14:57:08.700Z,101536.13
2022-10-10T14:59:46.496Z,101540.88
2022-10-10T15:02:17.408Z,101536.56
2022-10-10T15:04:45.961Z,101541.41
2022-10-10T15:07:15.395Z,101541.94
2022-10-10T15:12:36.611Z,101547.38
2022-10-10T15:15:06.019Z,101553.00
2022-10-10T15:17:35.108Z,101554.03
2022-10-10T15:20:04.420Z,101554.38
2022-10-10T15:22:33.281Z,101552.25
2022-10-10T15:25:03.523Z,101549.72
2022-10-10T15:27:33.038Z,101547.09
2022-10-10T15:30:02.173Z,101545.06
2022-10-10T15:32:30.789Z,101544.56
2022-10-10T15:34:59.319Z,101542.13
2022-10-10T15:37:28.361Z,101545.84
2022-10-10T15:39:57.190Z,101552.38
2022-10-10T15:42:27.309Z,101557.13
2022-10-10T15:44:55.739Z,101557.28
2022-10-10T15:47:24.739Z,101558.81
2022-10-10T15:49:53.419Z,101563.06
2022-10-10T15:52:23.569Z,101569.94
2022-10-10T15:54:52.059Z,101566.63
2022-10-10T15:57:22.515Z,101576.34
2022-10-10T15:59:52.568Z,101576.50
2022-10-10T16:02:21.140Z,101572.97
2022-10-10T16:04:49.779Z,101575.03
2022-10-10T16:07:29.307Z,101574.03
2022-10-10T16:10:01.419Z,101575.28
2022-10-10T16:12:29.999Z,101575.44
2022-10-10T16:15:03.482Z,101575.53
2022-10-10T16:17:35.356Z,101573.66
2022-10-10T16:20:04.069Z,101571.22
2022-10-10T16:22:33.490Z,101564.94
2022-10-10T16:25:22.441Z,101571.88
2022-10-10T16:27:50.579Z,101579.00
2022-10-10T16:30:21.366Z,101577.47
2022-10-10T16:32:50.288Z,101574.56
2022-10-10T16:35:18.951Z,101580.91
2022-10-10T16:37:47.489Z,101573.41
2022-10-10T16:40:15.889Z,101579.63
2022-10-10T16:42:44.607Z,101579.63
2022-10-10T16:45:13.648Z,101585.81
2022-10-10T16:47:43.750Z,101587.75
2022-10-10T16:50:12.672Z,101591.38
2022-10-10T16:52:41.928Z,101584.50
2022-10-10T16:55:11.478Z,101582.81
2022-10-10T16:57:41.349Z,101583.81
2022-10-10T17:00:13.372Z,101590.00
2022-10-10T17:02:43.714Z,101580.56
2022-10-10T17:05:12.319Z,101579.88
2022-10-10T17:07:41.138Z,101581.34
2022-10-10T17:10:10.724Z,101580.72
2022-10-10T17:12:39.484Z,101582.72
2022-10-10T17:15:09.544Z,101588.13
2022-10-10T17:17:39.711Z,101583.81
2022-10-10T17:20:11.919Z,101583.97
2022-10-10T17:22:41.260Z,101585.88
2022-10-10T17:25:11.085Z,101583.53
2022-10-10T17:27:42.128Z,101585.31
2022-10-10T17:30:13.859Z,101579.06
2022-10-10T17:32:43.564Z,101586.78
2022-10-10T17:35:14.119Z,101595.69
2022-10-10T17:37:42.589Z,101602.94
2022-10-10T17:40:11.719Z,101591.81
2022-10-10T17:42:40.513Z,101592.75
2022-10-10T17:45:10.413Z,101601.59
2022-10-10T17:47:40.559Z,101603.63
2022-10-10T17:50:10.980Z,101619.06
2022-10-10T17:52:41.044Z,101614.66
2022-10-10T17:55:10.151Z,101613.81
2022-10-10T17:57:38.608Z,101624.38
2022-10-10T18:00:07.960Z,101626.06
2022-10-10T18:02:36.431Z,101622.66
2022-10-10T18:05:05.024Z,101629.75
2022-10-10T18:07:33.518Z,101634.97
2022-10-10T18:10:03.459Z,101631.81
2022-10-10T18:12:31.939Z,101635.69
2022-10-10T18:15:02.459Z,101639.38
2022-10-10T18:17:31.029Z,101642.00
2022-10-10T18:19:59.529Z,101649.94
2022-10-10T18:22:28.130Z,101658.78
2022-10-10T18:24:56.553Z,101658.13
2022-10-10T18:27:27.020Z,101659.09
2022-10-10T18:29:55.659Z,101654.13
2022-10-10T18:32:24.149Z,101659.44
2022-10-10T18:34:52.680Z,101657.69
2022-10-10T18:37:21.250Z,101664.03
2022-10-10T18:39:49.752Z,101667.72
2022-10-10T18:42:18.229Z,101661.75
2022-10-10T18:44:48.239Z,101673.34
2022-10-10T18:47:17.169Z,101663.81
2022-10-10T18:49:45.660Z,101676.19
2022-10-10T18:52:14.399Z,101681.47
2022-10-10T18:54:42.959Z,101680.78
2022-10-10T18:57:11.529Z,101679.16
2022-10-10T18:59:40.069Z,101684.69
2022-10-10T19:02:11.828Z,101682.16
2022-10-10T19:04:40.275Z,101695.16
2022-10-10T19:07:08.789Z,101689.66
2022-10-10T19:09:37.409Z,101691.28
2022-10-10T19:12:06.279Z,101691.75
2022-10-10T19:14:34.769Z,101697.72
2022-10-10T19:17:03.244Z,101703.75
2022-10-10T19:19:33.395Z,101710.63
2022-10-10T19:22:02.179Z,101714.19
2022-10-10T19:24:31.599Z,101713.41
2022-10-10T19:27:00.885Z,101711.22
2022-10-10T19:29:30.234Z,101721.50
2022-10-10T19:31:59.275Z,101714.53
2022-10-10T19:34:28.370Z,101726.72
2022-10-10T19:36:58.890Z,101718.22
2022-10-10T19:39:28.649Z,101724.78
2022-10-10T19:41:57.125Z,101729.03
2022-10-10T19:44:26.874Z,101725.75
2022-10-10T19:46:56.985Z,101733.66
2022-10-10T19:49:25.501Z,101733.94
2022-10-10T19:51:54.969Z,101734.63
2022-10-10T19:54:25.129Z,101742.47
2022-10-10T19:56:53.530Z,101744.91
2022-10-10T19:59:23.074Z,101740.84
2022-10-10T20:01:53.270Z,101742.97
2022-10-10T20:04:22.574Z,101734.16
2022-10-10T20:06:52.699Z,101741.81
2022-10-10T20:09:21.794Z,101750.47
2022-10-10T20:11:51.919Z,101757.69
2022-10-10T20:14:20.969Z,101756.81
2022-10-10T20:16:49.970Z,101760.28
2022-10-10T20:19:19.924Z,101760.19
2022-10-10T20:21:48.901Z,101763.31
2022-10-10T20:24:24.185Z,101762.91
2022-10-10T20:26:56.799Z,101768.47
2022-10-10T20:29:26.000Z,101763.19
2022-10-10T20:31:54.846Z,101760.00
2022-10-10T20:34:25.599Z,101761.47
2022-10-10T20:36:54.269Z,101767.06
2022-10-10T20:39:24.202Z,101767.00
2022-10-10T20:41:58.149Z,101772.41
2022-10-10T20:44:27.204Z,101770.59
2022-10-10T20:47:00.101Z,101766.47
2022-10-10T20:49:30.680Z,101771.34
2022-10-10T20:52:00.056Z,101774.31
2022-10-10T20:54:31.539Z,101771.50
2022-10-10T20:57:01.671Z,101776.84
2022-10-10T20:59:32.231Z,101789.69
2022-10-10T21:02:01.117Z,101786.59
2022-10-10T21:04:30.319Z,101779.81
2022-10-10T21:07:01.240Z,101783.28
2022-10-10T21:09:33.244Z,101783.41
2022-10-10T21:12:03.356Z,101791.25
2022-10-10T21:14:32.204Z,101786.22
2022-10-10T21:17:00.715Z,101788.94
2022-10-10T21:19:30.689Z,101784.00
2022-10-10T21:21:59.539Z,101776.47
2022-10-10T21:24:27.989Z,101785.84
2022-10-10T21:26:56.549Z,101787.09
2022-10-10T21:29:26.614Z,101790.75
2022-10-10T21:31:55.227Z,101791.19
2022-10-10T21:34:23.770Z,101791.25
2022-10-10T21:36:52.650Z,101791.09
2022-10-10T21:39:21.259Z,101792.84
2022-10-10T21:41:49.815Z,101798.00
2022-10-10T21:44:18.445Z,101801.53
2022-10-10T21:46:48.544Z,101805.13
2022-10-10T21:49:17.250Z,101810.41
2022-10-10T21:51:46.899Z,101814.88
2022-10-10T21:54:15.987Z,101814.06
2022-10-10T21:56:44.549Z,101817.34
2022-10-10T21:59:13.464Z,101817.34
2022-10-10T22:01:42.853Z,101819.47
2022-10-10T22:04:12.849Z,101817.25
2022-10-10T22:06:41.950Z,101821.59
2022-10-10T22:09:11.720Z,101824.16
2022-10-10T22:11:42.739Z,101815.13
2022-10-10T22:14:21.615Z,101817.63
2022-10-10T22:16:50.449Z,101821.97
2022-10-10T22:19:20.369Z,101820.22
2022-10-10T22:21:49.548Z,101819.53
2022-10-10T22:24:18.329Z,101822.88
2022-10-10T22:26:47.370Z,101832.44
2022-10-10T22:29:15.869Z,101823.06
2022-10-10T22:31:44.659Z,101818.78
2022-10-10T22:34:13.509Z,101817.16
2022-10-10T22:36:43.729Z,101829.94
2022-10-10T22:39:12.390Z,101831.81
2022-10-10T22:41:41.070Z,101821.97
2022-10-10T22:44:10.613Z,101820.31
2022-10-10T22:46:39.399Z,101821.38
2022-10-10T22:49:07.990Z,101820.50
2022-10-10T22:51:36.710Z,101816.13
2022-10-10T22:54:06.930Z,101818.88
2022-10-10T22:56:35.860Z,101816.00
2022-10-10T22:59:04.545Z,101810.25
2022-10-10T23:01:33.180Z,101801.34
2022-10-10T23:04:09.413Z,101805.59
2022-10-10T23:06:38.259Z,101795.38
2022-10-10T23:09:08.699Z,101794.56
2022-10-10T23:11:37.249Z,101793.69
2022-10-10T23:14:06.471Z,101796.31
2022-10-10T23:16:37.478Z,101798.22
2022-10-10T23:19:09.179Z,101797.31
2022-10-10T23:21:40.549Z,101791.22
2022-10-10T23:24:10.850Z,101785.97
2022-10-10T23:26:39.649Z,101787.78
2022-10-10T23:29:09.399Z,101787.03
2022-10-10T23:31:37.899Z,101784.25
2022-10-10T23:34:06.489Z,101786.81
2022-10-10T23:36:35.010Z,101780.91
2022-10-10T23:39:07.581Z,101785.59
2022-10-10T23:41:39.649Z,101783.94
2022-10-10T23:44:08.369Z,101790.19
2022-10-10T23:46:36.849Z,101792.13
2022-10-10T23:49:05.500Z,101789.38
2022-10-10T23:51:33.950Z,101787.75
2022-10-10T23:54:02.413Z,101788.66
2022-10-10T23:56:31.015Z,101780.84
2022-10-10T23:59:00.949Z,101780.94
